createdAt,value
2022-09-07T00:01:02.353Z,12.75
2022-09-07T00:03:29.377Z,22.60
2022-09-07T00:05:56.149Z,13.70
2022-09-07T00:08:25.209Z,13.73
2022-09-07T00:13:31.273Z,11.77
2022-09-07T00:15:58.027Z,13.00
2022-09-07T00:18:24.800Z,12.13
2022-09-07T00:21:08.084Z,15.18
2022-09-07T00:23:35.929Z,16.08
2022-09-07T00:26:14.974Z,23.02
2022-09-07T00:28:42.977Z,23.40
2022-09-07T00:31:12.156Z,22.92
2022-09-07T00:33:39.336Z,20.52
2022-09-07T00:36:06.348Z,22.38
2022-09-07T00:38:33.379Z,20.70
2022-09-07T00:41:00.116Z,27.10
2022-09-07T00:43:37.288Z,19.33
2022-09-07T00:46:05.594Z,18.60
2022-09-07T00:48:39.425Z,14.73
2022-09-07T00:51:10.287Z,14.40
2022-09-07T00:53:47.386Z,17.98
2022-09-07T00:56:14.168Z,13.98
2022-09-07T00:58:42.476Z,17.30
2022-09-07T01:01:10.196Z,14.85
2022-09-07T01:03:40.944Z,13.18
2022-09-07T01:06:14.956Z,12.63
2022-09-07T01:08:43.610Z,13.48
2022-09-07T01:11:10.991Z,13.32
2022-09-07T01:13:40.453Z,12.07
2022-09-07T01:16:35.932Z,13.85
2022-09-07T01:19:27.006Z,12.82
2022-09-07T01:22:02.753Z,12.68
2022-09-07T01:24:46.926Z,12.32
2022-09-07T01:27:33.475Z,15.32
2022-09-07T01:30:20.927Z,19.60
2022-09-07T01:33:06.447Z,16.38
2022-09-07T01:35:45.322Z,14.10
2022-09-07T01:38:20.407Z,12.25
2022-09-07T01:41:10.488Z,11.50
2022-09-07T01:43:43.699Z,18.13
2022-09-07T01:46:21.430Z,14.60
2022-09-07T01:48:50.790Z,15.65
2022-09-07T01:51:19.308Z,17.42
2022-09-07T01:53:51.949Z,22.63
2022-09-07T01:56:27.662Z,26.10
2022-09-07T01:59:04.883Z,20.80
2022-09-07T02:01:36.374Z,30.10
2022-09-07T02:04:10.850Z,20.88
2022-09-07T02:06:44.615Z,29.50
2022-09-07T02:09:21.237Z,23.73
2022-09-07T02:11:50.215Z,29.70
2022-09-07T02:14:31.303Z,28.33
2022-09-07T02:17:09.149Z,37.60
2022-09-07T02:19:42.282Z,39.90
2022-09-07T02:22:16.747Z,41.58
2022-09-07T02:24:47.206Z,30.23
2022-09-07T02:27:17.932Z,36.55
2022-09-07T02:29:44.841Z,38.58
2022-09-07T02:32:11.573Z,37.30
2022-09-07T02:34:38.422Z,33.50
2022-09-07T02:37:06.251Z,47.45
2022-09-07T02:39:33.787Z,38.28
2022-09-07T02:42:00.769Z,46.45
2022-09-07T02:44:32.539Z,37.85
2022-09-07T02:47:25.456Z,51.13
2022-09-07T02:50:01.383Z,38.90
2022-09-07T02:52:39.938Z,39.80
2022-09-07T02:55:21.117Z,38.17
2022-09-07T02:58:13.939Z,43.80
2022-09-07T03:01:15.963Z,53.78
2022-09-07T03:04:03.817Z,37.17
2022-09-07T03:06:36.590Z,39.22
2022-09-07T03:09:06.957Z,46.20
2022-09-07T03:11:37.706Z,31.02
2022-09-07T03:14:13.311Z,37.72
2022-09-07T03:16:40.006Z,35.90
2022-09-07T03:19:06.784Z,38.63
2022-09-07T03:21:33.484Z,37.08
2022-09-07T03:24:00.157Z,38.75
2022-09-07T03:26:26.914Z,29.55
2022-09-07T03:28:53.842Z,38.97
2022-09-07T03:31:21.058Z,32.08
2022-09-07T03:33:48.348Z,26.45
2022-09-07T03:36:15.060Z,69.70
2022-09-07T03:38:41.817Z,35.55
2022-09-07T03:41:08.745Z,55.97
2022-09-07T03:43:35.829Z,34.15
2022-09-07T03:46:04.526Z,34.22
2022-09-07T03:48:33.097Z,31.95
2022-09-07T03:51:10.466Z,34.20
2022-09-07T03:53:39.137Z,32.25
2022-09-07T03:56:10.115Z,30.65
2022-09-07T03:58:37.300Z,34.17
2022-09-07T04:01:09.713Z,42.78
2022-09-07T04:03:37.366Z,37.65
2022-09-07T04:06:04.726Z,41.80
2022-09-07T04:08:33.314Z,31.17
2022-09-07T04:11:01.429Z,37.67
2022-09-07T04:13:29.487Z,26.85
2022-09-07T04:15:57.150Z,25.63
2022-09-07T04:18:24.843Z,24.67
2022-09-07T04:20:51.916Z,30.30
2022-09-07T04:23:19.716Z,32.60
2022-09-07T04:25:50.942Z,32.33
2022-09-07T04:28:18.805Z,32.53
2022-09-07T04:30:45.862Z,39.05
2022-09-07T04:33:13.397Z,35.58
2022-09-07T04:35:41.217Z,38.25
2022-09-07T04:38:09.004Z,39.33
2022-09-07T04:40:36.221Z,55.10
2022-09-07T04:43:02.919Z,53.53
2022-09-07T04:45:29.584Z,66.43
2022-09-07T04:47:56.328Z,64.95
2022-09-07T04:50:24.440Z,76.18
2022-09-07T04:52:51.154Z,74.05
2022-09-07T04:55:17.829Z,80.97
2022-09-07T04:57:44.526Z,70.60
2022-09-07T05:00:11.786Z,76.25
2022-09-07T05:02:38.607Z,71.07
2022-09-07T05:05:06.384Z,65.93
2022-09-07T05:07:33.119Z,71.00
2022-09-07T05:09:59.881Z,60.00
2022-09-07T05:12:26.829Z,67.20
2022-09-07T05:14:54.080Z,64.50
2022-09-07T05:17:20.794Z,51.83
2022-09-07T05:19:48.364Z,61.25
2022-09-07T05:22:15.052Z,42.97
2022-09-07T05:24:41.825Z,53.47
2022-09-07T05:27:08.513Z,44.25
2022-09-07T05:32:22.121Z,55.28
2022-09-07T05:34:52.268Z,49.20
2022-09-07T05:37:19.806Z,43.25
2022-09-07T05:39:46.952Z,48.50
2022-09-07T05:42:13.898Z,45.85
2022-09-07T05:44:43.949Z,55.72
2022-09-07T05:47:11.530Z,52.85
2022-09-07T05:49:38.281Z,59.38
2022-09-07T05:52:04.952Z,52.42
2022-09-07T05:54:31.670Z,51.22
2022-09-07T05:56:58.459Z,47.90
2022-09-07T05:59:25.192Z,51.35
2022-09-07T06:01:51.953Z,44.03
2022-09-07T06:04:18.735Z,37.75
2022-09-07T06:06:59.319Z,41.35
2022-09-07T06:09:32.286Z,53.47
2022-09-07T06:11:59.091Z,49.60
2022-09-07T06:14:25.774Z,44.10
2022-09-07T06:16:52.526Z,42.03
2022-09-07T06:19:19.225Z,51.78
2022-09-07T06:21:45.899Z,52.30
2022-09-07T06:24:12.563Z,51.50
2022-09-07T06:26:39.298Z,46.58
2022-09-07T06:29:05.984Z,47.42
2022-09-07T06:31:32.925Z,42.88
2022-09-07T06:33:59.690Z,46.17
2022-09-07T06:36:27.895Z,42.88
2022-09-07T06:38:55.958Z,42.85
2022-09-07T06:44:12.396Z,40.28
2022-09-07T06:49:26.313Z,52.78
2022-09-07T06:51:52.994Z,55.38
2022-09-07T06:57:09.316Z,44.80
2022-09-07T06:59:37.374Z,50.28
2022-09-07T07:02:05.091Z,40.35
2022-09-07T07:04:33.248Z,38.20
2022-09-07T07:07:03.176Z,42.58
2022-09-07T07:09:29.842Z,35.17
2022-09-07T07:11:56.538Z,40.55
2022-09-07T07:14:23.221Z,22.65
2022-09-07T07:16:49.972Z,22.27
2022-09-07T07:19:16.746Z,10.23
2022-09-07T07:22:07.951Z,8.93
2022-09-07T07:24:30.819Z,15.25
2022-09-07T07:26:57.661Z,8.85
2022-09-07T07:29:27.953Z,7.75
2022-09-07T07:31:55.162Z,8.13
2022-09-07T07:34:22.099Z,8.20
2022-09-07T07:36:48.772Z,10.77
2022-09-07T07:42:05.036Z,8.85
2022-09-07T07:44:32.481Z,10.50
2022-09-07T07:46:59.510Z,13.13
2022-09-07T07:49:26.912Z,10.85
2022-09-07T07:54:41.473Z,9.00
2022-09-07T07:57:08.245Z,9.98
2022-09-07T07:59:35.293Z,12.00
2022-09-07T08:02:04.831Z,11.80
2022-09-07T08:04:35.640Z,11.13
2022-09-07T08:07:08.675Z,10.73
2022-09-07T08:09:40.810Z,10.25
2022-09-07T08:12:08.587Z,13.60
2022-09-07T08:14:40.833Z,11.50
2022-09-07T08:17:11.751Z,8.60
2022-09-07T08:19:39.098Z,9.48
2022-09-07T08:22:06.452Z,9.35
2022-09-07T08:24:33.568Z,11.82
2022-09-07T08:27:00.442Z,10.40
2022-09-07T08:29:27.475Z,10.48
2022-09-07T08:31:54.285Z,9.20
2022-09-07T08:34:22.017Z,10.63
2022-09-07T08:36:48.983Z,10.15
2022-09-07T08:39:15.819Z,11.30
2022-09-07T08:41:42.393Z,11.73
2022-09-07T08:44:32.798Z,12.50
2022-09-07T08:47:23.802Z,10.25
2022-09-07T08:50:15.134Z,10.02
2022-09-07T08:52:52.252Z,9.38
2022-09-07T08:55:36.110Z,9.95
2022-09-07T08:58:49.861Z,9.07
2022-09-07T09:01:36.505Z,10.20
2022-09-07T09:06:11.117Z,9.40
2022-09-07T09:07:01.572Z,15.65
2022-09-07T09:09:30.880Z,12.65
2022-09-07T09:12:00.818Z,12.18
2022-09-07T09:14:36.670Z,10.13
2022-09-07T09:17:40.512Z,8.07
2022-09-07T09:20:31.944Z,10.48
2022-09-07T09:23:02.719Z,10.68
2022-09-07T09:25:33.578Z,14.13
2022-09-07T09:28:00.574Z,7.38
2022-09-07T09:30:28.306Z,8.40
2022-09-07T09:33:15.159Z,8.00
2022-09-07T09:35:43.001Z,8.15
2022-09-07T09:38:29.417Z,9.32
2022-09-07T09:40:57.601Z,7.60
2022-09-07T09:43:25.977Z,9.18
2022-09-07T09:46:13.165Z,10.10
2022-09-07T09:48:41.601Z,8.63
2022-09-07T09:53:57.632Z,8.70
2022-09-07T09:56:39.850Z,13.85
2022-09-07T10:05:27.231Z,8.35
2022-09-07T10:07:54.050Z,8.88
2022-09-07T10:10:21.071Z,8.95
2022-09-07T10:12:47.729Z,8.68
2022-09-07T10:15:26.880Z,7.85
2022-09-07T10:17:53.582Z,8.18
2022-09-07T10:20:22.958Z,9.52
2022-09-07T10:22:52.434Z,10.40
2022-09-07T10:25:39.713Z,8.75
2022-09-07T10:28:15.477Z,8.13
2022-09-07T10:30:48.096Z,11.82
2022-09-07T10:33:34.721Z,8.98
2022-09-07T10:36:42.923Z,10.63
2022-09-07T10:39:18.929Z,8.27
2022-09-07T10:41:48.394Z,8.98
2022-09-07T10:44:33.659Z,10.10
2022-09-07T10:47:24.799Z,8.43
2022-09-07T10:50:25.149Z,8.07
2022-09-07T10:53:39.503Z,11.63
2022-09-07T10:56:11.723Z,8.95
2022-09-07T10:59:06.241Z,8.63
2022-09-07T11:01:33.339Z,8.85
2022-09-07T11:04:31.560Z,9.13
2022-09-07T11:07:33.375Z,11.10
2022-09-07T11:10:08.787Z,9.98
2022-09-07T11:12:36.870Z,9.43
2022-09-07T11:15:12.363Z,11.57
2022-09-07T11:17:59.970Z,11.55
2022-09-07T11:20:56.678Z,10.57
2022-09-07T11:23:44.602Z,9.48
2022-09-07T11:26:30.545Z,10.98
2022-09-07T11:29:32.647Z,8.95
2022-09-07T11:32:04.776Z,12.52
2022-09-07T11:34:35.721Z,9.45
2022-09-07T11:37:28.456Z,10.20
2022-09-07T11:40:01.590Z,10.13
2022-09-07T11:42:49.827Z,11.57
2022-09-07T11:45:21.691Z,9.13
2022-09-07T11:47:56.518Z,10.82
2022-09-07T11:50:24.189Z,9.73
2022-09-07T11:53:22.423Z,11.73
2022-09-07T11:55:57.573Z,12.20
2022-09-07T11:58:51.866Z,10.60
2022-09-07T12:01:27.536Z,14.20
2022-09-07T12:04:25.067Z,9.95
2022-09-07T12:07:09.833Z,12.23
2022-09-07T12:10:04.355Z,12.77
2022-09-07T12:12:33.949Z,10.95
2022-09-07T12:15:31.670Z,15.70
2022-09-07T12:18:04.409Z,10.30
2022-09-07T12:20:44.748Z,13.00
2022-09-07T12:23:17.138Z,10.35
2022-09-07T12:25:45.457Z,11.35
2022-09-07T12:28:35.192Z,10.50
2022-09-07T12:31:10.646Z,10.15
2022-09-07T12:33:39.250Z,12.13
2022-09-07T12:36:27.810Z,13.82
2022-09-07T12:39:25.256Z,9.55
2022-09-07T12:45:29.206Z,12.57
2022-09-07T12:48:00.019Z,10.30
2022-09-07T12:50:29.623Z,9.88
2022-09-07T12:53:26.744Z,12.85
2022-09-07T12:58:45.909Z,8.93
2022-09-07T13:01:27.967Z,9.82
2022-09-07T13:04:18.706Z,10.40
2022-09-07T13:07:07.346Z,11.95
2022-09-07T13:09:40.396Z,9.98
2022-09-07T13:12:58.832Z,13.85
2022-09-07T13:16:06.964Z,9.95
2022-09-07T13:18:37.484Z,12.55
2022-09-07T13:21:06.832Z,12.13
2022-09-07T13:23:38.147Z,11.07
2022-09-07T13:26:08.864Z,12.20
2022-09-07T13:28:56.143Z,11.60
2022-09-07T13:31:45.384Z,13.07
2022-09-07T13:34:43.749Z,11.20
2022-09-07T13:37:27.528Z,10.88
2022-09-07T13:39:56.283Z,9.00
2022-09-07T13:45:05.100Z,12.85
2022-09-07T13:47:38.181Z,12.90
2022-09-07T13:50:26.120Z,12.43
2022-09-07T13:53:17.359Z,10.07
2022-09-07T13:55:56.477Z,11.35
2022-09-07T13:58:23.062Z,9.40
2022-09-07T14:01:01.158Z,10.18
2022-09-07T14:03:59.858Z,9.63
2022-09-07T14:06:30.137Z,17.98
2022-09-07T14:09:05.474Z,9.32
2022-09-07T14:11:44.112Z,13.95
2022-09-07T14:14:24.007Z,13.73
2022-09-07T14:16:59.471Z,12.95
2022-09-07T14:19:34.462Z,9.02
2022-09-07T14:22:02.982Z,11.63
2022-09-07T14:24:32.430Z,11.65
2022-09-07T14:27:00.204Z,9.57
2022-09-07T14:29:32.610Z,12.02
2022-09-07T14:32:01.505Z,13.90
2022-09-07T14:37:00.492Z,10.52
2022-09-07T14:39:29.912Z,10.65
2022-09-07T14:41:57.747Z,11.90
2022-09-07T14:44:38.955Z,13.65
2022-09-07T14:47:30.668Z,13.48
2022-09-07T14:50:10.702Z,12.35
2022-09-07T14:52:44.101Z,12.52
2022-09-07T14:55:33.660Z,16.15
2022-09-07T14:58:15.688Z,13.90
2022-09-07T15:00:47.514Z,11.27
2022-09-07T15:03:35.556Z,14.15
2022-09-07T15:06:03.485Z,11.07
2022-09-07T15:08:42.168Z,14.32
2022-09-07T15:11:36.178Z,11.20
2022-09-07T15:14:11.717Z,9.52
2022-09-07T15:16:42.500Z,10.70
2022-09-07T15:19:15.695Z,12.45
2022-09-07T15:21:43.361Z,12.43
2022-09-07T15:24:10.737Z,15.98
2022-09-07T15:29:29.136Z,11.40
2022-09-07T15:32:02.642Z,10.60
2022-09-07T15:34:30.900Z,9.50
2022-09-07T15:37:00.620Z,9.38
2022-09-07T15:39:30.102Z,17.30
2022-09-07T15:41:58.202Z,13.88
2022-09-07T15:44:28.394Z,13.18
2022-09-07T15:49:49.294Z,13.43
2022-09-07T15:52:17.429Z,14.25
2022-09-07T15:54:44.130Z,12.68
2022-09-07T15:59:58.667Z,9.98
2022-09-07T16:05:12.187Z,10.68
2022-09-07T16:10:25.961Z,9.00
2022-09-07T16:13:01.233Z,14.43
2022-09-07T16:15:28.925Z,11.93
2022-09-07T16:17:55.590Z,13.05
2022-09-07T16:20:22.376Z,10.70
2022-09-07T16:25:36.561Z,14.52
2022-09-07T16:28:05.678Z,10.73
2022-09-07T16:30:32.750Z,9.73
2022-09-07T16:32:59.482Z,9.13
2022-09-07T16:35:26.251Z,10.10
2022-09-07T16:40:42.628Z,12.40
2022-09-07T16:43:10.032Z,11.00
2022-09-07T16:48:23.576Z,11.63
2022-09-07T16:51:00.453Z,12.10
2022-09-07T16:53:29.316Z,11.55
2022-09-07T16:56:07.648Z,14.73
2022-09-07T16:58:38.886Z,12.70
2022-09-07T17:01:08.398Z,18.23
2022-09-07T17:03:36.854Z,13.52
2022-09-07T17:06:05.479Z,16.70
2022-09-07T17:08:33.515Z,22.08
2022-09-07T17:11:04.943Z,13.32
2022-09-07T17:13:33.269Z,12.02
2022-09-07T17:16:13.537Z,10.20
2022-09-07T17:21:33.230Z,12.48
2022-09-07T17:24:00.817Z,15.20
2022-09-07T17:26:27.634Z,13.68
2022-09-07T17:28:59.791Z,14.50
2022-09-07T17:34:19.761Z,11.85
2022-09-07T17:36:46.897Z,12.60
2022-09-07T17:39:15.023Z,10.43
2022-09-07T17:41:43.100Z,10.65
2022-09-07T17:44:09.745Z,11.60
2022-09-07T17:46:36.426Z,12.10
2022-09-07T17:49:03.734Z,11.75
2022-09-07T17:51:32.094Z,12.48
2022-09-07T17:54:02.583Z,13.10
2022-09-07T17:56:29.957Z,11.48
2022-09-07T18:00:10.621Z,16.85
2022-09-07T18:01:43.547Z,10.35
2022-09-07T18:04:10.416Z,12.02
2022-09-07T18:06:37.330Z,11.55
2022-09-07T18:09:05.069Z,11.30
2022-09-07T18:11:48.714Z,20.25
2022-09-07T18:14:16.099Z,13.73
2022-09-07T18:16:44.179Z,13.73
2022-09-07T18:19:11.244Z,14.63
2022-09-07T18:21:40.946Z,12.27
2022-09-07T18:24:19.500Z,12.00
2022-09-07T18:26:52.209Z,14.52
2022-09-07T18:29:36.821Z,12.52
2022-09-07T18:32:08.746Z,12.15
2022-09-07T18:34:37.043Z,12.90
2022-09-07T18:37:04.661Z,12.85
2022-09-07T18:39:32.393Z,9.73
2022-09-07T18:41:59.205Z,10.23
2022-09-07T18:47:21.612Z,14.27
2022-09-07T18:49:48.990Z,11.63
2022-09-07T18:55:02.265Z,23.98
2022-09-07T18:57:28.869Z,9.95
2022-09-07T18:59:55.541Z,13.18
2022-09-07T19:02:22.344Z,9.90
2022-09-07T19:07:35.710Z,11.43
2022-09-07T19:10:06.288Z,9.85
2022-09-07T19:12:32.908Z,10.68
2022-09-07T19:14:59.537Z,12.93
2022-09-07T19:17:26.338Z,13.20
2022-09-07T19:19:52.997Z,25.08
2022-09-07T19:22:19.659Z,14.52
2022-09-07T19:24:46.981Z,10.95
2022-09-07T19:27:13.775Z,32.08
2022-09-07T19:29:40.417Z,12.65
2022-09-07T19:32:07.846Z,12.85
2022-09-07T19:34:36.694Z,9.43
2022-09-07T19:37:04.867Z,13.38
2022-09-07T19:39:31.673Z,13.20
2022-09-07T19:41:58.624Z,15.80
2022-09-07T19:44:25.540Z,10.88
2022-09-07T19:46:52.265Z,13.63
2022-09-07T19:49:19.051Z,11.65
2022-09-07T19:51:45.728Z,13.88
2022-09-07T19:54:13.305Z,13.50
2022-09-07T19:56:42.771Z,10.73
2022-09-07T19:59:09.682Z,10.45
2022-09-07T20:01:37.848Z,12.57
2022-09-07T20:04:07.486Z,13.65
2022-09-07T20:06:34.894Z,13.95
2022-09-07T20:09:01.894Z,15.43
2022-09-07T20:11:28.936Z,9.50
2022-09-07T20:13:57.154Z,10.68
2022-09-07T20:16:24.537Z,13.93
2022-09-07T20:18:51.860Z,10.05
2022-09-07T20:21:24.601Z,11.15
2022-09-07T20:23:51.245Z,17.10
2022-09-07T20:26:19.817Z,10.25
2022-09-07T20:28:46.758Z,11.13
2022-09-07T20:31:15.405Z,11.75
2022-09-07T20:33:43.944Z,9.40
2022-09-07T20:36:13.086Z,11.02
2022-09-07T20:38:45.084Z,8.38
2022-09-07T20:41:22.662Z,12.02
2022-09-07T20:43:50.183Z,10.35
2022-09-07T20:46:17.632Z,10.32
2022-09-07T20:48:44.749Z,10.05
2022-09-07T20:51:20.848Z,16.02
2022-09-07T20:53:48.899Z,13.00
2022-09-07T20:56:25.973Z,13.18
2022-09-07T20:58:57.167Z,11.85
2022-09-07T21:01:24.171Z,12.10
2022-09-07T21:03:52.870Z,11.48
2022-09-07T21:06:20.665Z,10.15
2022-09-07T21:08:47.898Z,14.38
2022-09-07T21:11:20.711Z,11.73
2022-09-07T21:13:47.580Z,15.30
2022-09-07T21:16:15.980Z,13.48
2022-09-07T21:18:44.233Z,13.70
2022-09-07T21:21:20.381Z,12.18
2022-09-07T21:23:47.880Z,12.35
2022-09-07T21:26:14.891Z,13.52
2022-09-07T21:28:41.564Z,18.08
2022-09-07T21:31:09.369Z,19.08
2022-09-07T21:33:37.769Z,12.85
2022-09-07T21:36:10.093Z,14.38
2022-09-07T21:38:39.567Z,13.50
2022-09-07T21:41:10.647Z,10.38
2022-09-07T21:43:37.572Z,9.52
2022-09-07T21:46:08.257Z,11.73
2022-09-07T21:48:35.396Z,11.77
2022-09-07T21:51:02.204Z,12.40
2022-09-07T21:53:28.968Z,14.70
2022-09-07T21:56:03.622Z,14.45
2022-09-07T21:58:31.753Z,10.88
2022-09-07T22:01:00.791Z,11.05
2022-09-07T22:03:27.589Z,15.57
2022-09-07T22:05:54.464Z,10.82
2022-09-07T22:08:21.080Z,12.30
2022-09-07T22:10:47.909Z,12.20
2022-09-07T22:13:14.514Z,16.13
2022-09-07T22:15:41.661Z,15.15
2022-09-07T22:18:11.998Z,13.50
2022-09-07T22:20:39.048Z,11.98
2022-09-07T22:23:05.822Z,13.55
2022-09-07T22:25:33.502Z,10.18
2022-09-07T22:28:00.262Z,14.68
2022-09-07T22:30:27.290Z,16.73
2022-09-07T22:32:53.951Z,12.88
2022-09-07T22:35:21.117Z,11.40
2022-09-07T22:37:47.734Z,11.10
2022-09-07T22:40:14.958Z,10.10
2022-09-07T22:42:42.006Z,8.77
2022-09-07T22:45:09.342Z,10.18
2022-09-07T22:47:36.047Z,9.63
2022-09-07T22:50:02.676Z,12.07
2022-09-07T22:52:29.309Z,10.32
2022-09-07T22:54:55.935Z,10.65
2022-09-07T22:57:23.453Z,10.65
2022-09-07T22:59:50.062Z,10.05
2022-09-07T23:02:16.702Z,9.43
2022-09-07T23:04:43.451Z,10.68
2022-09-07T23:07:10.582Z,10.25
2022-09-07T23:09:37.302Z,9.77
2022-09-07T23:12:04.135Z,11.57
2022-09-07T23:14:31.044Z,9.90
2022-09-07T23:16:57.690Z,9.35
2022-09-07T23:19:24.371Z,9.68
2022-09-07T23:21:51.009Z,10.38
2022-09-07T23:24:19.184Z,11.18
2022-09-07T23:26:46.958Z,9.55
2022-09-07T23:29:14.553Z,9.70
2022-09-07T23:31:41.823Z,9.13
2022-09-07T23:34:08.722Z,9.02
2022-09-07T23:36:35.561Z,9.80
2022-09-07T23:39:02.193Z,14.25
2022-09-07T23:41:29.099Z,11.20
2022-09-07T23:43:56.368Z,11.20
2022-09-07T23:46:23.380Z,14.07
2022-09-07T23:48:50.213Z,9.02
2022-09-07T23:51:22.772Z,9.05
2022-09-07T23:53:51.248Z,13.55
2022-09-07T23:56:17.948Z,13.05
2022-09-07T23:58:45.125Z,10.00
